Accueil
METAR-TAF:

METAR-TAF

Aéroports :

Reus, Espagne

Aéroport de Reus

latitude: 41-09N, longitude: 001-10E, altitude: 71 m

Observation

Le bulletin a été fait il y a 18 minutes, à 01:30 UTC
Vent 2 kt de nord
Température 23°C
Humidité 83%
Pression 1019 hPa
Visibilité 10 km ou plus

METAR: LERS 240130Z AUTO 35002KT 9999 NCD 23/20 Q1019

Heure: 03:48 (01:48 UTC)

Prévision

Le bulletin a été fait il y a 11 heures et 48 minutes, à 14:00 UTC
Prévision valable du 23 à 15 UTC au 24 à 15 UTC
Vent 10 kt de sud
Visibilité 10 km ou plus
Quelques nuages à une hauteur de 3000 ft
Evoluant progressivement
du 23 à 18 UTC au 23 à 20 UTC
Vent 3 kt de direction variable
Evoluant progressivement
du 24 à 08 UTC au 24 à 10 UTC
Vent 10 kt de sud

TAF: LERS 231400Z 2315/2415 18010KT 9999 FEW030 TX32/2413Z TN21/2405Z BECMG 2318/2320 VRB03KT BECMG 2408/2410 19010KT

Observations et prévisions météorologiques de plus de 4000 aéroports (messages METAR et TAF).

Les stations disponibles sont représentées par des disques jaunes et rouges sur la carte.

Passer la souris dessus pour voir le nom de la station.

Cliquer dessus pour voir les observations et prévisions météorologiques.

Pour changer de carte: cliquez sur les boutons verts avec une croix noire pour zoomer, sur le bouton vert avec un tiret pour effectuer un zoom arrière, ou sur les flèches vertes pour les cartes adjacentes.


METAR-TAF: